createdAt,value
2018-08-04T00:00:42.081Z,14.40
2018-08-04T00:01:42.122Z,13.30
2018-08-04T00:02:42.163Z,12.80
2018-08-04T00:03:42.210Z,13.20
2018-08-04T00:04:42.246Z,12.80
2018-08-04T00:05:42.289Z,13.90
2018-08-04T00:06:42.329Z,13.10
2018-08-04T00:07:42.373Z,12.90
2018-08-04T00:08:42.412Z,12.90
2018-08-04T00:09:42.454Z,13.40
2018-08-04T00:10:42.494Z,12.30
2018-08-04T00:11:42.539Z,13.40
2018-08-04T00:12:42.580Z,13.80
2018-08-04T00:13:42.620Z,13.50
2018-08-04T00:14:42.659Z,14.20
2018-08-04T00:15:42.700Z,13.90
2018-08-04T00:16:42.741Z,14.60
2018-08-04T00:17:42.790Z,14.50
2018-08-04T00:18:42.825Z,14.30
2018-08-04T00:19:42.865Z,14.50
2018-08-04T00:20:42.907Z,14.20
2018-08-04T00:21:42.949Z,14.10
2018-08-04T00:22:42.992Z,13.90
2018-08-04T00:23:43.030Z,13.70
2018-08-04T00:24:43.086Z,13.80
2018-08-04T00:25:43.113Z,13.70
2018-08-04T00:26:43.152Z,13.90
2018-08-04T00:27:43.204Z,13.70
2018-08-04T00:28:43.240Z,14.70
2018-08-04T00:29:43.279Z,14.50
2018-08-04T00:30:43.318Z,15.10
2018-08-04T00:31:43.369Z,14.40
2018-08-04T00:32:43.403Z,16.20
2018-08-04T00:33:43.444Z,14.70
2018-08-04T00:34:43.485Z,15.10
2018-08-04T00:35:43.525Z,16.40
2018-08-04T00:36:43.566Z,15.50
2018-08-04T00:37:43.609Z,14.30
2018-08-04T00:38:43.648Z,14.20
2018-08-04T00:39:43.692Z,14.60
2018-08-04T00:40:43.731Z,15.10
2018-08-04T00:41:43.777Z,14.70
2018-08-04T00:42:43.812Z,15.00
2018-08-04T00:43:43.863Z,15.80
2018-08-04T00:44:43.895Z,15.20
2018-08-04T00:45:43.937Z,15.50
2018-08-04T00:46:43.977Z,15.40
2018-08-04T00:47:44.017Z,15.40
2018-08-04T00:48:44.060Z,15.20
2018-08-04T00:49:44.100Z,16.20
2018-08-04T00:50:44.142Z,15.10
2018-08-04T00:51:44.182Z,17.30
2018-08-04T00:52:44.223Z,15.50
2018-08-04T00:53:44.267Z,15.00
2018-08-04T00:54:44.306Z,14.70
2018-08-04T00:55:44.348Z,15.10
2018-08-04T00:56:44.390Z,15.00
2018-08-04T00:57:44.431Z,18.40
2018-08-04T00:58:44.475Z,15.40
2018-08-04T00:59:44.513Z,16.10
2018-08-04T01:00:44.555Z,15.30
2018-08-04T01:01:44.595Z,15.50
2018-08-04T01:02:44.636Z,15.40
2018-08-04T01:03:44.678Z,15.80
2018-08-04T01:04:44.717Z,15.60
2018-08-04T01:05:44.758Z,15.10
2018-08-04T01:06:44.800Z,15.20
2018-08-04T01:07:44.842Z,16.20
2018-08-04T01:08:44.883Z,16.40
2018-08-04T01:09:44.924Z,16.30
2018-08-04T01:10:44.967Z,16.20
2018-08-04T01:11:45.004Z,15.50
2018-08-04T01:12:45.045Z,15.40
2018-08-04T01:13:45.101Z,16.40
2018-08-04T01:14:45.125Z,16.70
2018-08-04T01:15:45.178Z,17.30
2018-08-04T01:16:45.210Z,15.90
2018-08-04T01:17:45.249Z,16.30
2018-08-04T01:18:45.290Z,16.40
2018-08-04T01:19:45.332Z,16.20
2018-08-04T01:20:45.372Z,15.80
2018-08-04T01:21:45.412Z,15.60
2018-08-04T01:22:45.457Z,16.80
2018-08-04T01:23:45.496Z,16.00
2018-08-04T01:24:45.536Z,16.30
2018-08-04T01:25:45.576Z,16.00
2018-08-04T01:26:45.616Z,16.70
2018-08-04T01:27:45.658Z,16.00
2018-08-04T01:28:45.710Z,15.40
2018-08-04T01:29:45.741Z,15.20
2018-08-04T01:30:45.784Z,16.10
2018-08-04T01:31:45.821Z,15.70
2018-08-04T01:32:45.862Z,15.70
2018-08-04T01:33:45.905Z,16.30
2018-08-04T01:34:45.944Z,16.00
2018-08-04T01:35:45.986Z,15.40
2018-08-04T01:36:46.027Z,15.40
2018-08-04T01:37:46.068Z,15.90
2018-08-04T01:38:46.108Z,15.40
2018-08-04T01:39:46.150Z,16.50
2018-08-04T01:40:46.191Z,15.60
2018-08-04T01:41:46.237Z,15.70
2018-08-04T01:42:46.271Z,16.10
2018-08-04T01:43:46.313Z,16.30
2018-08-04T01:44:46.352Z,16.00
2018-08-04T01:45:46.394Z,15.90
2018-08-04T01:46:46.439Z,15.70
2018-08-04T01:47:46.474Z,15.90
2018-08-04T01:48:46.524Z,15.80
2018-08-04T01:49:46.558Z,15.80
2018-08-04T01:50:46.598Z,14.90
2018-08-04T01:51:46.637Z,15.80
2018-08-04T01:52:46.680Z,16.90
2018-08-04T01:53:46.770Z,15.40
2018-08-04T01:54:46.762Z,19.90
2018-08-04T01:55:46.802Z,16.10
2018-08-04T01:56:46.842Z,15.50
2018-08-04T01:57:46.885Z,15.70
2018-08-04T01:58:46.923Z,15.70
2018-08-04T01:59:46.966Z,15.80
2018-08-04T02:00:47.009Z,15.30
2018-08-04T02:01:47.046Z,15.70
2018-08-04T02:02:47.086Z,15.60
2018-08-04T02:03:47.128Z,16.80
2018-08-04T02:04:47.169Z,15.50
2018-08-04T02:05:47.211Z,16.00
2018-08-04T02:06:47.249Z,15.20
2018-08-04T02:07:47.291Z,15.90
2018-08-04T02:08:47.329Z,15.80
2018-08-04T02:09:47.370Z,16.60
2018-08-04T02:10:47.411Z,16.30
2018-08-04T02:11:47.461Z,15.70
2018-08-04T02:12:47.491Z,16.60
2018-08-04T02:13:47.541Z,15.60
2018-08-04T02:14:47.577Z,15.90
2018-08-04T02:15:47.613Z,16.20
2018-08-04T02:16:47.656Z,15.60
2018-08-04T02:17:47.697Z,15.70
2018-08-04T02:18:47.734Z,15.80
2018-08-04T02:19:47.776Z,15.60
2018-08-04T02:20:47.817Z,15.90
2018-08-04T02:21:47.860Z,16.50
2018-08-04T02:22:47.896Z,15.40
2018-08-04T02:23:47.936Z,16.00
2018-08-04T02:24:47.979Z,17.50
2018-08-04T02:25:48.020Z,17.20
2018-08-04T02:26:48.066Z,16.30
2018-08-04T02:27:48.098Z,16.80
2018-08-04T02:28:48.142Z,17.40
2018-08-04T02:29:48.184Z,16.80
2018-08-04T02:30:48.223Z,16.90
2018-08-04T02:31:48.264Z,17.60
2018-08-04T02:32:48.303Z,16.60
2018-08-04T02:33:48.345Z,18.00
2018-08-04T02:34:48.386Z,17.70
2018-08-04T02:35:48.425Z,16.90
2018-08-04T02:36:48.465Z,16.50
2018-08-04T02:37:48.506Z,17.00
2018-08-04T02:38:48.547Z,16.30
2018-08-04T02:39:48.637Z,17.20
2018-08-04T02:40:48.627Z,17.50
2018-08-04T02:41:48.668Z,17.90
2018-08-04T02:42:48.709Z,17.60
2018-08-04T02:43:48.747Z,17.70
2018-08-04T02:44:48.788Z,17.90
2018-08-04T02:45:48.829Z,17.30
2018-08-04T02:46:48.869Z,17.10
2018-08-04T02:47:48.909Z,17.10
2018-08-04T02:48:48.949Z,17.00
2018-08-04T02:49:48.993Z,17.10
2018-08-04T02:50:49.034Z,17.30
2018-08-04T02:51:49.071Z,16.90
2018-08-04T02:52:49.114Z,17.20
2018-08-04T02:53:49.159Z,17.30
2018-08-04T02:54:49.192Z,17.20
2018-08-04T02:55:49.233Z,17.00
2018-08-04T02:56:49.274Z,18.90
2018-08-04T02:57:49.314Z,17.70
2018-08-04T02:58:49.356Z,17.00
2018-08-04T02:59:49.395Z,16.90
2018-08-04T03:00:49.436Z,17.50
2018-08-04T03:01:49.479Z,17.40
2018-08-04T03:02:49.515Z,16.20
2018-08-04T03:03:49.571Z,17.40
2018-08-04T03:04:49.598Z,17.70
2018-08-04T03:05:49.672Z,16.90
2018-08-04T03:06:49.678Z,17.30
2018-08-04T03:07:49.718Z,17.80
2018-08-04T03:08:49.758Z,18.00
2018-08-04T03:09:49.807Z,17.10
2018-08-04T03:10:49.838Z,16.30
2018-08-04T03:11:49.878Z,17.60
2018-08-04T03:12:49.920Z,17.10
2018-08-04T03:13:49.957Z,16.90
2018-08-04T03:14:50.001Z,16.40
2018-08-04T03:15:50.039Z,16.50
2018-08-04T03:16:50.083Z,16.70
2018-08-04T03:17:50.119Z,17.40
2018-08-04T03:18:50.159Z,17.50
2018-08-04T03:19:50.200Z,17.80
2018-08-04T03:20:50.240Z,17.50
2018-08-04T03:21:50.281Z,17.40
2018-08-04T03:22:50.321Z,16.50
2018-08-04T03:23:50.361Z,17.30
2018-08-04T03:24:50.402Z,17.60
2018-08-04T03:25:50.441Z,18.30
2018-08-04T03:26:50.482Z,17.80
2018-08-04T03:27:50.523Z,17.90
2018-08-04T03:28:50.561Z,18.20
2018-08-04T03:29:50.601Z,18.40
2018-08-04T03:30:50.643Z,17.20
2018-08-04T03:31:50.681Z,16.70
2018-08-04T03:32:50.722Z,17.20
2018-08-04T03:33:50.815Z,16.70
2018-08-04T03:34:50.803Z,17.60
2018-08-04T03:35:50.846Z,17.30
2018-08-04T03:36:50.891Z,17.80
2018-08-04T03:37:50.924Z,17.10
2018-08-04T03:38:50.964Z,18.00
2018-08-04T03:39:51.012Z,17.20
2018-08-04T03:40:51.046Z,17.40
2018-08-04T03:41:51.089Z,17.30
2018-08-04T03:42:51.124Z,16.60
2018-08-04T03:43:51.165Z,16.40
2018-08-04T03:44:51.204Z,17.60
2018-08-04T03:45:51.244Z,17.60
2018-08-04T03:46:51.284Z,17.40
2018-08-04T03:47:51.332Z,16.90
2018-08-04T03:48:51.366Z,17.20
2018-08-04T03:49:51.407Z,17.30
2018-08-04T03:50:51.446Z,17.10
2018-08-04T03:51:51.486Z,17.40
2018-08-04T03:52:51.526Z,17.70
2018-08-04T03:53:51.566Z,17.60
2018-08-04T03:54:51.607Z,17.20
2018-08-04T03:55:51.646Z,18.00
2018-08-04T03:56:51.691Z,17.50
2018-08-04T03:57:51.728Z,17.50
2018-08-04T03:58:51.772Z,17.80
2018-08-04T03:59:51.806Z,18.10
2018-08-04T04:00:51.848Z,16.70
2018-08-04T04:01:51.886Z,18.80
2018-08-04T04:02:51.928Z,17.80
2018-08-04T04:03:51.966Z,18.40
2018-08-04T04:04:52.008Z,17.30
2018-08-04T04:05:52.058Z,18.20
2018-08-04T04:06:52.089Z,17.70
2018-08-04T04:07:52.130Z,17.20
2018-08-04T04:08:52.178Z,18.80
2018-08-04T04:09:52.210Z,17.40
2018-08-04T04:10:52.256Z,17.70
2018-08-04T04:11:52.289Z,17.90
2018-08-04T04:12:52.329Z,18.30
2018-08-04T04:13:52.376Z,18.30
2018-08-04T04:14:52.410Z,18.20
2018-08-04T04:15:52.451Z,18.30
2018-08-04T04:16:52.488Z,18.30
2018-08-04T04:17:52.530Z,18.50
2018-08-04T04:18:52.569Z,18.50
2018-08-04T04:19:52.611Z,18.80
2018-08-04T04:20:52.649Z,19.20
2018-08-04T04:21:52.692Z,21.20
2018-08-04T04:22:52.731Z,18.30
2018-08-04T04:23:52.770Z,18.80
2018-08-04T04:24:52.812Z,18.00
2018-08-04T04:25:52.853Z,18.10
2018-08-04T04:26:52.891Z,18.20
2018-08-04T04:27:52.932Z,17.10
2018-08-04T04:28:52.974Z,17.90
2018-08-04T04:29:53.024Z,18.60
2018-08-04T04:30:53.052Z,19.60
2018-08-04T04:31:53.095Z,18.40
2018-08-04T04:32:53.134Z,18.10
2018-08-04T04:33:53.184Z,19.40
2018-08-04T04:34:53.215Z,19.20
2018-08-04T04:35:53.257Z,18.80
2018-08-04T04:36:53.354Z,18.60
2018-08-04T04:37:53.340Z,17.80
2018-08-04T04:38:53.377Z,18.00
2018-08-04T04:39:53.415Z,18.30
2018-08-04T04:40:53.459Z,18.00
2018-08-04T04:41:53.499Z,17.60
2018-08-04T04:42:53.540Z,17.90
2018-08-04T04:43:53.577Z,18.10
2018-08-04T04:44:53.619Z,18.30
2018-08-04T04:45:53.659Z,18.40
2018-08-04T04:46:53.698Z,18.20
2018-08-04T04:47:53.738Z,17.70
2018-08-04T04:48:53.783Z,18.70
2018-08-04T04:49:53.824Z,18.70
2018-08-04T04:50:53.858Z,18.20
2018-08-04T04:51:53.900Z,18.30
2018-08-04T04:52:53.940Z,18.20
2018-08-04T04:53:53.982Z,18.00
2018-08-04T04:54:54.024Z,18.40
2018-08-04T04:55:54.063Z,17.90
2018-08-04T04:56:54.104Z,18.40
2018-08-04T04:57:54.143Z,18.50
2018-08-04T04:58:54.184Z,18.30
2018-08-04T04:59:54.225Z,17.40
2018-08-04T05:00:54.265Z,18.50
2018-08-04T05:01:54.310Z,18.40
2018-08-04T05:02:54.347Z,19.20
2018-08-04T05:03:54.387Z,18.20
2018-08-04T05:04:54.429Z,18.10
2018-08-04T05:05:54.469Z,17.80
2018-08-04T05:06:54.508Z,18.20
2018-08-04T05:07:54.547Z,18.50
2018-08-04T05:08:54.589Z,18.90
2018-08-04T05:09:54.637Z,18.50
2018-08-04T05:10:54.670Z,17.60
2018-08-04T05:11:54.711Z,18.90
2018-08-04T05:12:54.753Z,19.50
2018-08-04T05:13:54.793Z,19.00
2018-08-04T05:14:54.831Z,18.60
2018-08-04T05:15:54.871Z,18.60
2018-08-04T05:16:54.914Z,18.30
2018-08-04T05:17:55.006Z,19.10
2018-08-04T05:18:54.993Z,19.60
2018-08-04T05:19:55.034Z,18.10
2018-08-04T05:20:55.075Z,18.90
2018-08-04T05:21:55.121Z,18.90
2018-08-04T05:22:55.162Z,18.80
2018-08-04T05:23:55.197Z,19.20
2018-08-04T05:24:55.239Z,18.30
2018-08-04T05:25:55.281Z,19.30
2018-08-04T05:26:55.321Z,19.10
2018-08-04T05:27:55.363Z,19.00
2018-08-04T05:28:55.402Z,17.40
2018-08-04T05:29:55.445Z,18.70
2018-08-04T05:30:55.484Z,18.70
2018-08-04T05:31:55.608Z,19.30
2018-08-04T05:32:55.567Z,18.60
2018-08-04T05:33:55.607Z,18.10
2018-08-04T05:34:55.649Z,21.80
2018-08-04T05:35:55.690Z,18.20
2018-08-04T05:36:55.737Z,19.20
2018-08-04T05:37:55.773Z,19.20
2018-08-04T05:38:55.813Z,18.30
2018-08-04T05:39:55.855Z,21.00
2018-08-04T05:40:55.896Z,18.50
2018-08-04T05:41:55.937Z,18.30
2018-08-04T05:42:55.977Z,18.00
2018-08-04T05:43:56.022Z,17.60
2018-08-04T05:44:56.060Z,17.80
2018-08-04T05:45:56.102Z,17.30
2018-08-04T05:46:56.144Z,17.90
2018-08-04T05:47:56.184Z,18.00
2018-08-04T05:48:56.228Z,17.70
2018-08-04T05:49:56.316Z,17.80
2018-08-04T05:50:56.308Z,17.40
2018-08-04T05:51:56.349Z,17.60
2018-08-04T05:52:56.391Z,17.20
2018-08-04T05:53:56.434Z,17.50
2018-08-04T05:54:56.484Z,19.20
2018-08-04T05:55:56.515Z,17.10
2018-08-04T05:56:56.560Z,17.60
2018-08-04T05:57:56.663Z,17.90
2018-08-04T05:58:56.639Z,17.60
2018-08-04T05:59:56.682Z,17.40
2018-08-04T06:00:56.724Z,17.20
2018-08-04T06:01:56.765Z,17.20
2018-08-04T06:02:56.827Z,18.20
2018-08-04T06:03:56.845Z,17.80
2018-08-04T06:04:56.892Z,17.60
2018-08-04T06:05:56.940Z,17.10
2018-08-04T06:06:56.970Z,18.00
2018-08-04T06:07:57.014Z,19.40
2018-08-04T06:08:57.058Z,16.90
2018-08-04T06:09:57.097Z,17.90
2018-08-04T06:10:57.136Z,17.30
2018-08-04T06:11:57.183Z,16.90
2018-08-04T06:12:57.221Z,17.50
2018-08-04T06:13:57.263Z,17.20
2018-08-04T06:14:57.306Z,17.90
2018-08-04T06:15:57.349Z,17.60
2018-08-04T06:16:57.389Z,17.70
2018-08-04T06:17:57.430Z,18.90
2018-08-04T06:18:57.523Z,17.10
2018-08-04T06:19:57.515Z,18.20
2018-08-04T06:20:57.557Z,17.10
2018-08-04T06:21:57.628Z,17.10
2018-08-04T06:22:57.642Z,17.30
2018-08-04T06:23:57.681Z,17.60
2018-08-04T06:24:57.724Z,18.30
2018-08-04T06:25:57.768Z,18.60
2018-08-04T06:26:57.809Z,18.30
2018-08-04T06:27:57.851Z,16.90
2018-08-04T06:28:57.895Z,17.50
2018-08-04T06:29:57.936Z,16.50
2018-08-04T06:30:57.977Z,17.50
2018-08-04T06:31:58.020Z,16.80
2018-08-04T06:32:58.065Z,16.50
2018-08-04T06:33:58.109Z,16.60
2018-08-04T06:34:58.146Z,16.30
2018-08-04T06:35:58.189Z,14.90
2018-08-04T06:36:58.233Z,15.80
2018-08-04T06:37:58.278Z,14.90
2018-08-04T06:38:58.317Z,14.80
2018-08-04T06:39:58.359Z,14.60
2018-08-04T06:40:58.402Z,15.00
2018-08-04T06:41:58.443Z,15.40
2018-08-04T06:42:58.488Z,14.30
2018-08-04T06:43:58.528Z,14.60
2018-08-04T06:44:58.572Z,14.30
2018-08-04T06:45:58.619Z,14.00
2018-08-04T06:46:58.658Z,14.10
2018-08-04T06:47:58.701Z,14.20
2018-08-04T06:48:58.744Z,13.50
2018-08-04T06:49:58.785Z,13.30
2018-08-04T06:50:58.828Z,14.10
2018-08-04T06:51:58.870Z,14.00
2018-08-04T06:52:58.937Z,14.50
2018-08-04T06:53:58.959Z,15.70
2018-08-04T06:54:59.002Z,13.50
2018-08-04T06:55:59.044Z,13.80
2018-08-04T06:56:59.087Z,13.40
2018-08-04T06:57:59.131Z,13.90
2018-08-04T06:58:59.172Z,13.60
2018-08-04T06:59:59.214Z,13.40
2018-08-04T07:00:59.256Z,12.90
2018-08-04T07:01:59.300Z,13.50
2018-08-04T07:02:59.345Z,13.10
2018-08-04T07:03:59.387Z,13.40
2018-08-04T07:04:59.428Z,13.60
2018-08-04T07:05:59.473Z,13.40
2018-08-04T07:06:59.515Z,12.70
2018-08-04T07:07:59.559Z,13.30
2018-08-04T07:08:59.601Z,13.00
2018-08-04T07:09:59.642Z,13.30
2018-08-04T07:10:59.685Z,13.30
2018-08-04T07:11:59.733Z,13.00
2018-08-04T07:12:59.849Z,12.80
2018-08-04T07:13:59.816Z,12.80
2018-08-04T07:14:59.859Z,13.00
2018-08-04T07:15:59.905Z,12.80
2018-08-04T07:16:59.946Z,12.70
2018-08-04T07:17:59.997Z,13.00
2018-08-04T07:19:00.032Z,12.60
2018-08-04T07:20:00.075Z,13.50
2018-08-04T07:21:00.128Z,14.00
2018-08-04T07:22:01.273Z,14.40
2018-08-04T07:23:00.227Z,12.00
2018-08-04T07:24:00.251Z,13.70
2018-08-04T07:25:00.294Z,12.20
2018-08-04T07:26:00.337Z,12.20
2018-08-04T07:27:00.379Z,14.30
2018-08-04T07:28:00.425Z,12.90
2018-08-04T07:29:00.522Z,11.20
2018-08-04T07:30:00.519Z,11.00
2018-08-04T07:31:00.554Z,13.10
2018-08-04T07:32:00.601Z,12.30
2018-08-04T07:33:00.650Z,11.90
2018-08-04T07:34:00.685Z,13.80
2018-08-04T07:35:00.728Z,13.20
2018-08-04T07:36:00.776Z,13.20
2018-08-04T07:37:00.994Z,14.20
2018-08-04T07:38:00.859Z,11.50
2018-08-04T07:39:00.910Z,11.80
2018-08-04T07:40:00.946Z,11.70
2018-08-04T07:41:01.061Z,11.90
2018-08-04T07:42:01.140Z,12.00
2018-08-04T07:43:01.077Z,11.00
2018-08-04T07:44:01.122Z,11.30
2018-08-04T07:45:01.173Z,12.90
2018-08-04T07:46:01.213Z,11.10
2018-08-04T07:47:01.256Z,11.00
2018-08-04T07:48:01.302Z,12.50
2018-08-04T07:49:01.390Z,13.10
2018-08-04T07:50:01.399Z,11.00
2018-08-04T07:51:01.431Z,11.40
2018-08-04T07:52:01.474Z,11.10
2018-08-04T07:53:01.518Z,12.00
2018-08-04T07:54:01.581Z,11.10
2018-08-04T07:55:01.615Z,11.80
2018-08-04T07:56:01.651Z,11.20
2018-08-04T07:57:01.697Z,11.00
2018-08-04T07:58:01.744Z,12.80
2018-08-04T07:59:01.781Z,11.80
2018-08-04T08:00:01.836Z,10.70
2018-08-04T08:01:02.008Z,12.80
2018-08-04T08:02:01.919Z,10.70
2018-08-04T08:03:01.962Z,10.60
2018-08-04T08:04:02.006Z,11.20
2018-08-04T08:05:02.119Z,13.20
2018-08-04T08:06:02.103Z,13.70
2018-08-04T08:07:02.142Z,13.10
2018-08-04T08:08:02.182Z,10.60
2018-08-04T08:09:02.236Z,14.10
2018-08-04T08:10:02.272Z,11.40
2018-08-04T08:11:02.347Z,11.20
2018-08-04T08:12:02.364Z,12.60
2018-08-04T08:13:02.404Z,10.70
2018-08-04T08:14:02.449Z,13.80
2018-08-04T08:15:02.492Z,11.30
2018-08-04T08:16:02.537Z,10.80
2018-08-04T08:17:02.582Z,10.30
2018-08-04T08:18:02.627Z,10.90
2018-08-04T08:19:02.683Z,10.40
2018-08-04T08:20:02.719Z,11.60
2018-08-04T08:21:02.766Z,10.10
2018-08-04T08:22:02.823Z,10.80
2018-08-04T08:23:02.851Z,10.70
2018-08-04T08:24:02.896Z,11.10
2018-08-04T08:25:02.945Z,10.70
2018-08-04T08:26:02.986Z,14.30
2018-08-04T08:27:03.031Z,10.10
2018-08-04T08:28:03.078Z,10.50
2018-08-04T08:29:03.122Z,10.40
2018-08-04T08:30:03.172Z,12.30
2018-08-04T08:31:03.211Z,10.40
2018-08-04T08:32:03.267Z,11.50
2018-08-04T08:33:03.300Z,11.90
2018-08-04T08:34:03.346Z,11.10
2018-08-04T08:35:03.396Z,10.70
2018-08-04T08:36:03.435Z,10.80
2018-08-04T08:37:03.486Z,10.60
2018-08-04T08:38:03.536Z,12.00
2018-08-04T08:39:03.573Z,11.70
2018-08-04T08:40:03.619Z,10.60
2018-08-04T08:41:03.665Z,11.40
2018-08-04T08:42:03.711Z,10.90
2018-08-04T08:43:03.754Z,12.80
2018-08-04T08:44:03.800Z,11.50
2018-08-04T08:45:03.849Z,10.40
2018-08-04T08:46:03.894Z,12.70
2018-08-04T08:47:04.010Z,10.90
2018-08-04T08:48:03.987Z,11.10
2018-08-04T08:49:04.032Z,10.10
2018-08-04T08:50:04.079Z,10.70
2018-08-04T08:51:04.124Z,10.70
2018-08-04T08:52:04.170Z,10.80
2018-08-04T08:53:04.288Z,10.90
2018-08-04T08:54:04.467Z,11.30
2018-08-04T08:55:04.309Z,10.20
2018-08-04T08:56:04.355Z,10.50
2018-08-04T08:57:04.404Z,11.00
2018-08-04T08:58:04.450Z,11.10
2018-08-04T08:59:04.512Z,10.40
2018-08-04T09:00:04.544Z,10.40
2018-08-04T09:01:04.592Z,10.30
2018-08-04T09:02:04.641Z,10.70
2018-08-04T09:03:04.696Z,14.40
2018-08-04T09:04:04.741Z,10.50
2018-08-04T09:05:04.783Z,12.00
2018-08-04T09:06:04.927Z,10.60
2018-08-04T09:07:04.876Z,10.40
2018-08-04T09:08:04.931Z,11.20
2018-08-04T09:09:04.974Z,11.70
2018-08-04T09:10:05.023Z,9.90
2018-08-04T09:11:05.066Z,11.40
2018-08-04T09:12:05.114Z,10.20
2018-08-04T09:13:05.506Z,10.50
2018-08-04T09:14:05.210Z,9.80
2018-08-04T09:15:05.260Z,10.10
2018-08-04T09:16:05.307Z,10.00
2018-08-04T09:17:05.359Z,10.30
2018-08-04T09:18:05.402Z,12.00
2018-08-04T09:19:05.456Z,10.20
2018-08-04T09:20:05.498Z,11.40
2018-08-04T09:21:05.546Z,10.70
2018-08-04T09:22:05.596Z,10.20
2018-08-04T09:23:05.680Z,9.90
2018-08-04T09:24:05.691Z,10.40
2018-08-04T09:25:05.741Z,13.40
2018-08-04T09:26:05.789Z,10.50
2018-08-04T09:27:05.835Z,12.40
2018-08-04T09:28:05.891Z,10.20
2018-08-04T09:29:05.939Z,10.60
2018-08-04T09:30:06.384Z,10.90
2018-08-04T09:31:06.040Z,10.30
2018-08-04T09:32:06.085Z,10.90
2018-08-04T09:33:06.126Z,10.50
2018-08-04T09:34:06.176Z,10.70
2018-08-04T09:35:06.224Z,10.30
2018-08-04T09:36:06.274Z,10.50
2018-08-04T09:37:06.322Z,10.10
2018-08-04T09:38:06.406Z,10.00
2018-08-04T09:39:06.444Z,9.60
2018-08-04T09:40:06.467Z,10.20
2018-08-04T09:41:06.518Z,10.20
2018-08-04T09:42:06.563Z,9.80
2018-08-04T09:43:06.614Z,10.00
2018-08-04T09:44:06.659Z,10.20
2018-08-04T09:45:06.712Z,10.90
2018-08-04T09:46:06.990Z,10.30
2018-08-04T09:47:06.809Z,10.50
2018-08-04T09:48:06.856Z,12.00
2018-08-04T09:49:06.903Z,10.00
2018-08-04T09:50:06.955Z,9.70
2018-08-04T09:51:07.003Z,10.50
2018-08-04T09:52:07.047Z,10.30
2018-08-04T09:53:07.097Z,10.30
2018-08-04T09:54:07.144Z,11.30
2018-08-04T09:55:07.191Z,11.40
2018-08-04T09:56:07.241Z,10.50
2018-08-04T09:57:07.306Z,9.70
2018-08-04T09:58:07.349Z,9.60
2018-08-04T09:59:07.399Z,10.40
2018-08-04T10:00:07.434Z,10.00
2018-08-04T10:01:07.485Z,9.60
2018-08-04T10:02:07.534Z,9.50
2018-08-04T10:03:07.587Z,9.40
2018-08-04T10:04:07.632Z,9.90
2018-08-04T10:05:07.680Z,9.40
2018-08-04T10:06:07.725Z,9.80
2018-08-04T10:07:07.776Z,9.00
2018-08-04T10:08:07.826Z,9.10
2018-08-04T10:09:07.887Z,9.70
2018-08-04T10:10:07.919Z,9.60
2018-08-04T10:11:07.989Z,9.20
2018-08-04T10:12:08.018Z,9.90
2018-08-04T10:13:08.073Z,9.40
2018-08-04T10:14:08.118Z,9.50
2018-08-04T10:15:08.159Z,10.50
2018-08-04T10:16:08.213Z,8.70
2018-08-04T10:17:08.262Z,9.10
2018-08-04T10:18:08.310Z,9.30
2018-08-04T10:19:08.354Z,9.50
2018-08-04T10:20:08.408Z,8.70
2018-08-04T10:21:08.453Z,9.50
2018-08-04T10:22:08.504Z,12.40
2018-08-04T10:23:08.556Z,10.20
2018-08-04T10:24:08.604Z,10.90
2018-08-04T10:25:08.645Z,9.10
2018-08-04T10:26:08.769Z,10.10
2018-08-04T10:27:08.740Z,9.60
2018-08-04T10:28:08.790Z,9.30
2018-08-04T10:29:08.838Z,10.90
2018-08-04T10:30:08.900Z,10.10
2018-08-04T10:31:08.950Z,10.20
2018-08-04T10:32:09.107Z,9.40
2018-08-04T10:33:09.030Z,9.50
2018-08-04T10:34:09.080Z,9.80
2018-08-04T10:35:09.139Z,8.80
2018-08-04T10:36:09.173Z,8.80
2018-08-04T10:37:09.224Z,10.20
2018-08-04T10:38:09.271Z,8.70
2018-08-04T10:39:09.322Z,9.20
2018-08-04T10:40:09.366Z,9.10
2018-08-04T10:41:09.412Z,9.10
2018-08-04T10:42:09.461Z,10.70
2018-08-04T10:43:09.510Z,9.00
2018-08-04T10:44:09.559Z,9.00
2018-08-04T10:45:09.608Z,10.30
2018-08-04T10:46:09.664Z,8.70
2018-08-04T10:47:09.710Z,9.80
2018-08-04T10:48:09.752Z,10.60
2018-08-04T10:49:09.802Z,9.00
2018-08-04T10:50:09.848Z,8.80
2018-08-04T10:51:09.899Z,9.70
2018-08-04T10:52:10.284Z,8.60
2018-08-04T10:53:09.993Z,9.60
2018-08-04T10:54:10.043Z,11.60
2018-08-04T10:55:10.101Z,10.40
2018-08-04T10:56:10.145Z,10.60
2018-08-04T10:57:10.194Z,9.00
2018-08-04T10:58:10.239Z,8.90
2018-08-04T10:59:10.282Z,9.50
2018-08-04T11:00:10.340Z,9.00
2018-08-04T11:01:10.382Z,10.50
2018-08-04T11:02:10.437Z,9.50
2018-08-04T11:03:10.478Z,8.20
2018-08-04T11:04:10.529Z,8.70
2018-08-04T11:05:10.579Z,11.40
2018-08-04T11:06:10.624Z,8.70
2018-08-04T11:07:10.676Z,10.40
2018-08-04T11:08:10.723Z,9.10
2018-08-04T11:09:10.776Z,10.00
2018-08-04T11:10:10.827Z,10.50
2018-08-04T11:11:10.867Z,10.10
2018-08-04T11:12:10.925Z,9.50
2018-08-04T11:13:10.964Z,8.50
2018-08-04T11:14:11.012Z,8.60
2018-08-04T11:15:11.062Z,9.20
2018-08-04T11:16:11.109Z,9.30
2018-08-04T11:17:11.168Z,11.90
2018-08-04T11:18:11.292Z,9.30
2018-08-04T11:19:11.263Z,8.50
2018-08-04T11:20:11.306Z,9.30
2018-08-04T11:21:11.356Z,8.70
2018-08-04T11:22:11.403Z,8.90
2018-08-04T11:23:11.451Z,8.60
2018-08-04T11:24:11.617Z,8.90
2018-08-04T11:25:11.579Z,8.30
2018-08-04T11:26:11.591Z,9.00
2018-08-04T11:27:11.642Z,9.60
2018-08-04T11:28:11.685Z,8.50
2018-08-04T11:29:11.732Z,11.00
2018-08-04T11:30:11.784Z,10.20
2018-08-04T11:31:11.829Z,8.10
2018-08-04T11:32:11.882Z,8.30
2018-08-04T11:33:11.927Z,10.90
2018-08-04T11:34:11.975Z,8.60
2018-08-04T11:35:12.021Z,9.20
2018-08-04T11:36:12.071Z,10.70
2018-08-04T11:37:12.115Z,9.60
2018-08-04T11:38:12.162Z,10.00
2018-08-04T11:39:12.212Z,9.30
2018-08-04T11:40:12.256Z,10.60
2018-08-04T11:41:12.306Z,9.10
2018-08-04T11:42:12.354Z,10.40
2018-08-04T11:43:12.406Z,8.00
2018-08-04T11:44:12.448Z,10.60
2018-08-04T11:45:12.495Z,8.40
2018-08-04T11:46:12.540Z,8.90
2018-08-04T11:47:12.589Z,10.40
2018-08-04T11:48:12.639Z,8.60
2018-08-04T11:49:12.682Z,9.60
2018-08-04T11:50:12.730Z,9.20
2018-08-04T11:51:12.779Z,8.90
2018-08-04T11:52:12.828Z,8.70
2018-08-04T11:53:12.874Z,8.80
2018-08-04T11:54:12.941Z,8.70
2018-08-04T11:55:12.967Z,8.90
2018-08-04T11:56:13.013Z,9.10
2018-08-04T11:57:13.062Z,8.70
2018-08-04T11:58:13.108Z,9.20
2018-08-04T11:59:13.158Z,9.30
2018-08-04T12:00:13.209Z,9.20
2018-08-04T12:01:13.285Z,10.90
2018-08-04T12:02:13.299Z,9.30
2018-08-04T12:03:13.351Z,10.20
2018-08-04T12:04:13.422Z,11.10
2018-08-04T12:05:13.442Z,9.90
2018-08-04T12:06:13.489Z,8.90
2018-08-04T12:07:13.539Z,8.60
2018-08-04T12:08:13.585Z,10.20
2018-08-04T12:09:13.633Z,9.80
2018-08-04T12:10:13.683Z,8.20
2018-08-04T12:11:13.736Z,9.30
2018-08-04T12:12:13.786Z,9.30
2018-08-04T12:13:13.822Z,8.60
2018-08-04T12:14:13.871Z,9.10
2018-08-04T12:15:13.925Z,9.10
2018-08-04T12:16:13.976Z,8.40
2018-08-04T12:17:14.017Z,8.30
2018-08-04T12:18:14.148Z,7.80
2018-08-04T12:19:14.119Z,8.00
2018-08-04T12:20:14.157Z,8.00
2018-08-04T12:21:14.206Z,6.90
2018-08-04T12:22:14.253Z,7.90
2018-08-04T12:23:14.301Z,6.70
2018-08-04T12:24:14.362Z,6.30
2018-08-04T12:25:14.397Z,7.40
2018-08-04T12:26:14.443Z,8.30
2018-08-04T12:27:14.493Z,6.50
2018-08-04T12:28:14.543Z,7.30
2018-08-04T12:29:14.590Z,7.30
2018-08-04T12:30:14.635Z,7.50
2018-08-04T12:31:14.701Z,7.10
2018-08-04T12:32:14.734Z,7.70
2018-08-04T12:33:14.783Z,7.30
2018-08-04T12:34:14.830Z,6.80
2018-08-04T12:35:14.878Z,6.90
2018-08-04T12:36:14.928Z,7.60
2018-08-04T12:37:14.975Z,5.90
2018-08-04T12:38:15.028Z,6.70
2018-08-04T12:39:15.074Z,6.40
2018-08-04T12:40:15.121Z,9.00
2018-08-04T12:41:15.172Z,8.70
2018-08-04T12:42:15.240Z,7.90
2018-08-04T12:43:15.271Z,6.90
2018-08-04T12:44:15.317Z,6.80
2018-08-04T12:45:15.367Z,9.70
2018-08-04T12:46:15.424Z,5.80
2018-08-04T12:47:15.465Z,6.70
2018-08-04T12:48:15.516Z,8.20
2018-08-04T12:49:15.583Z,6.40
2018-08-04T12:50:15.615Z,6.40
2018-08-04T12:51:15.663Z,7.20
2018-08-04T12:52:15.717Z,6.80
2018-08-04T12:53:15.762Z,7.60
2018-08-04T12:54:15.913Z,7.40
2018-08-04T12:55:15.864Z,7.00
2018-08-04T12:56:15.915Z,7.00
2018-08-04T12:57:15.965Z,8.20
2018-08-04T12:58:16.012Z,7.70